Time;durP1;ratioP1;P1;durP2;ratioP2;P2;SDS_P1;SDS_P2;PMS_P1;PMS_P2;Temp;Humidity;BMP_temperature;BMP_pressure;BME280_temperature;BME280_humidity;BME280_pressure;Samples;Min_cycle;Max_cycle;Signal;HPM_P1;HPM_P2
2021/03/03 00:01:41;;;;;;;17.43;10.27;;;;;;;;;;5092422;28;20417;-69
2021/03/03 00:04:07;;;;;;;15.30;8.73;;;;;;;;;;5070453;28;20439;-69
2021/03/03 00:06:33;;;;;;;17.17;8.50;;;;;;;;;;5072106;28;20504;-69
2021/03/03 00:08:59;;;;;;;14.17;9.03;;;;;;;;;;5088237;28;20431;-69
2021/03/03 00:11:25;;;;;;;17.63;10.40;;;;;;;;;;5089706;28;20805;-69
2021/03/03 00:13:51;;;;;;;20.33;9.50;;;;;;;;;;5069722;28;20981;-69
2021/03/03 00:16:17;;;;;;;17.47;10.60;;;;;;;;;;5096118;28;20810;-69
2021/03/03 00:18:43;;;;;;;13.83;8.17;;;;;;;;;;5091204;28;20458;-69
2021/03/03 00:21:09;;;;;;;15.23;10.03;;;;;;;;;;5070659;28;20428;-68
2021/03/03 00:23:36;;;;;;;16.83;10.40;;;;;;;;;;5082379;28;20765;-68
2021/03/03 00:26:02;;;;;;;15.83;8.97;;;;;;;;;;5096092;28;20411;-69
2021/03/03 00:28:28;;;;;;;18.00;9.80;;;;;;;;;;5085732;28;20508;-68
2021/03/03 00:30:54;;;;;;;14.30;8.60;;;;;;;;;;5077684;28;20485;-69
2021/03/03 00:33:20;;;;;;;16.50;9.50;;;;;;;;;;5075990;28;20432;-69
2021/03/03 00:35:46;;;;;;;16.93;9.97;;;;;;;;;;5095897;28;20466;-69
2021/03/03 00:38:12;;;;;;;14.70;9.40;;;;;;;;;;5093686;28;20487;-68
2021/03/03 00:40:38;;;;;;;14.50;8.80;;;;;;;;;;5095660;28;20396;-68
2021/03/03 00:43:04;;;;;;;15.00;9.77;;;;;;;;;;5093837;28;20427;-68
2021/03/03 00:45:30;;;;;;;22.77;9.07;;;;;;;;;;5095801;28;20899;-68
2021/03/03 00:47:56;;;;;;;17.30;9.77;;;;;;;;;;5081302;28;20458;-68
2021/03/03 00:50:22;;;;;;;13.07;8.40;;;;;;;;;;5095924;28;20461;-69
2021/03/03 00:52:48;;;;;;;20.07;9.30;;;;;;;;;;5087833;28;20791;-69
2021/03/03 00:55:14;;;;;;;21.33;9.83;;;;;;;;;;5095545;28;20407;-69
2021/03/03 00:57:40;;;;;;;16.53;9.33;;;;;;;;;;5089424;28;20556;-68
2021/03/03 01:00:07;;;;;;;19.40;9.40;;;;;;;;;;5075052;28;20458;-70
2021/03/03 01:02:33;;;;;;;13.50;8.10;;;;;;;;;;5076718;28;20429;-68
2021/03/03 01:04:59;;;;;;;17.23;8.70;;;;;;;;;;5095168;28;20762;-69
2021/03/03 01:07:25;;;;;;;14.60;8.53;;;;;;;;;;5092958;28;20424;-69
2021/03/03 01:09:51;;;;;;;15.83;8.33;;;;;;;;;;5095427;28;20425;-69
2021/03/03 01:12:17;;;;;;;14.33;9.37;;;;;;;;;;5084335;28;20405;-69
2021/03/03 01:14:43;;;;;;;17.60;9.27;;;;;;;;;;5075063;28;20458;-69
2021/03/03 01:17:09;;;;;;;12.83;8.50;;;;;;;;;;5074682;28;20519;-69
2021/03/03 01:19:35;;;;;;;12.03;8.13;;;;;;;;;;5089711;28;20491;-69
2021/03/03 01:22:01;;;;;;;13.60;7.73;;;;;;;;;;5093837;28;20410;-69
2021/03/03 01:24:27;;;;;;;12.17;8.13;;;;;;;;;;5093017;28;20737;-70
2021/03/03 01:26:53;;;;;;;13.97;7.63;;;;;;;;;;5094913;28;20419;-69
2021/03/03 01:29:19;;;;;;;18.77;9.17;;;;;;;;;;5092762;28;20421;-68
2021/03/03 01:31:46;;;;;;;16.43;8.70;;;;;;;;;;5095013;28;20458;-68
2021/03/03 01:34:12;;;;;;;12.60;7.60;;;;;;;;;;5092768;28;20808;-68
2021/03/03 01:36:38;;;;;;;14.83;7.10;;;;;;;;;;5094900;28;20541;-68
2021/03/03 01:39:04;;;;;;;16.30;8.30;;;;;;;;;;5092487;28;20507;-69
2021/03/03 01:41:30;;;;;;;14.20;8.10;;;;;;;;;;5076369;28;20429;-69
2021/03/03 01:43:56;;;;;;;16.50;10.40;;;;;;;;;;5064380;28;20925;-69
2021/03/03 01:46:22;;;;;;;16.13;7.53;;;;;;;;;;5073567;28;20448;-69
2021/03/03 01:48:48;;;;;;;11.07;7.40;;;;;;;;;;5054903;28;20437;-68
2021/03/03 01:51:15;;;;;;;20.90;8.17;;;;;;;;;;5074196;28;20402;-68
2021/03/03 01:53:41;;;;;;;12.53;7.60;;;;;;;;;;5072642;28;20435;-68
2021/03/03 01:56:07;;;;;;;11.73;7.20;;;;;;;;;;5074140;28;20722;-69
2021/03/03 01:58:33;;;;;;;13.43;8.10;;;;;;;;;;5078078;28;20821;-69
2021/03/03 02:00:59;;;;;;;14.60;8.37;;;;;;;;;;5094392;28;20458;-69
2021/03/03 02:03:25;;;;;;;17.27;7.07;;;;;;;;;;5092531;28;20889;-69
2021/03/03 02:05:55;;;;;;;16.63;8.67;;;;;;;;;;5094292;28;20411;-69
2021/03/03 02:08:24;;;;;;;12.23;7.87;;;;;;;;;;5073752;28;20438;-69
2021/03/03 02:10:49;;;;;;;17.77;7.73;;;;;;;;;;5073927;28;20441;-68
2021/03/03 02:13:18;;;;;;;11.43;7.17;;;;;;;;;;5076413;28;20412;-69
2021/03/03 02:15:46;;;;;;;12.00;7.90;;;;;;;;;;5093851;28;20514;-69
2021/03/03 02:18:13;;;;;;;9.90;7.23;;;;;;;;;;5098785;22;20565;-69
2021/03/03 02:20:59;;;;;;;13.97;7.83;;;;;;;;;;5067399;28;20759;-69
2021/03/03 02:23:25;;;;;;;13.20;6.60;;;;;;;;;;5039718;28;20422;-69
2021/03/03 02:25:51;;;;;;;13.20;8.77;;;;;;;;;;5073004;28;20788;-69
2021/03/03 02:28:17;;;;;;;11.57;7.20;;;;;;;;;;5072446;28;20438;-69
2021/03/03 02:30:45;;;;;;;12.13;8.30;;;;;;;;;;5061011;28;20433;-69
2021/03/03 02:33:13;;;;;;;12.23;7.53;;;;;;;;;;5073622;28;20881;-69
2021/03/03 02:35:39;;;;;;;15.07;8.27;;;;;;;;;;5088357;28;20439;-69
2021/03/03 02:38:06;;;;;;;14.23;7.23;;;;;;;;;;5088247;28;20816;-69
2021/03/03 02:40:32;;;;;;;12.40;8.37;;;;;;;;;;5075457;28;20957;-70
2021/03/03 02:42:59;;;;;;;10.57;7.77;;;;;;;;;;5073415;28;20492;-69
2021/03/03 02:45:25;;;;;;;17.00;8.23;;;;;;;;;;5071952;28;20522;-70
2021/03/03 02:47:52;;;;;;;12.30;7.70;;;;;;;;;;5073537;28;20974;-70
2021/03/03 02:50:18;;;;;;;11.90;7.13;;;;;;;;;;5080085;28;20452;-70
2021/03/03 02:52:48;;;;;;;13.83;7.73;;;;;;;;;;5082570;28;20430;-69
2021/03/03 02:55:14;;;;;;;12.97;7.97;;;;;;;;;;5079338;28;20432;-69
2021/03/03 02:57:41;;;;;;;10.87;6.90;;;;;;;;;;5093562;28;20421;-69
2021/03/03 03:00:07;;;;;;;9.60;7.43;;;;;;;;;;5079675;28;20854;-69
2021/03/03 03:02:34;;;;;;;13.77;7.57;;;;;;;;;;5072169;28;20476;-70
2021/03/03 03:05:02;;;;;;;11.93;7.73;;;;;;;;;;5076910;28;20525;-69
2021/03/03 03:07:28;;;;;;;12.73;7.53;;;;;;;;;;5091436;28;20477;-70
2021/03/03 03:09:57;;;;;;;10.73;6.67;;;;;;;;;;5079571;28;20516;-69
2021/03/03 03:12:24;;;;;;;13.87;6.90;;;;;;;;;;5073103;28;20959;-70
2021/03/03 03:14:50;;;;;;;11.07;6.87;;;;;;;;;;5072077;28;20414;-70
2021/03/03 03:17:17;;;;;;;16.40;7.50;;;;;;;;;;5072820;28;20849;-70
2021/03/03 03:19:44;;;;;;;10.90;6.70;;;;;;;;;;5073728;28;20445;-70
2021/03/03 03:22:13;;;;;;;15.30;6.30;;;;;;;;;;5093362;28;20400;-70
2021/03/03 03:24:39;;;;;;;14.70;7.37;;;;;;;;;;5073213;28;20807;-70
2021/03/03 03:27:05;;;;;;;13.90;8.20;;;;;;;;;;5089263;28;20440;-70
2021/03/03 03:29:33;;;;;;;13.97;8.63;;;;;;;;;;5072464;28;20457;-71
2021/03/03 03:31:59;;;;;;;18.03;10.07;;;;;;;;;;5056478;28;20460;-70
2021/03/03 03:34:25;;;;;;;16.17;8.37;;;;;;;;;;5053108;28;20410;-70
2021/03/03 03:36:52;;;;;;;19.47;9.50;;;;;;;;;;5090800;28;20801;-70
2021/03/03 03:39:18;;;;;;;18.53;8.03;;;;;;;;;;5073657;28;20455;-70
2021/03/03 03:41:46;;;;;;;13.67;7.83;;;;;;;;;;5089793;28;20788;-70
2021/03/03 03:44:13;;;;;;;14.80;7.83;;;;;;;;;;5083949;28;20440;-70
2021/03/03 03:46:40;;;;;;;13.03;8.30;;;;;;;;;;5055701;28;20443;-70
2021/03/03 03:49:06;;;;;;;11.60;7.83;;;;;;;;;;5067252;28;20512;-70
2021/03/03 03:51:33;;;;;;;21.43;7.93;;;;;;;;;;5090052;28;20516;-70
2021/03/03 03:54:00;;;;;;;14.80;9.50;;;;;;;;;;5076011;28;20432;-70
2021/03/03 03:56:26;;;;;;;12.87;7.30;;;;;;;;;;5089978;28;20462;-70
2021/03/03 03:58:52;;;;;;;15.20;7.57;;;;;;;;;;5086994;28;20489;-70
2021/03/03 04:01:18;;;;;;;13.63;7.67;;;;;;;;;;5075178;28;20937;-70
2021/03/03 04:03:44;;;;;;;14.70;7.30;;;;;;;;;;5076530;28;20399;-70
2021/03/03 04:06:10;;;;;;;19.43;7.70;;;;;;;;;;5074474;28;20521;-70
2021/03/03 04:08:36;;;;;;;18.23;8.03;;;;;;;;;;5076227;28;20953;-70
2021/03/03 04:11:02;;;;;;;15.90;7.93;;;;;;;;;;5075470;28;20521;-70
2021/03/03 04:13:28;;;;;;;15.10;8.80;;;;;;;;;;5076364;28;20435;-70
2021/03/03 04:15:54;;;;;;;18.13;6.80;;;;;;;;;;5092047;28;20853;-70
2021/03/03 04:18:20;;;;;;;12.40;8.03;;;;;;;;;;5076267;28;20660;-70
2021/03/03 04:20:46;;;;;;;14.97;7.70;;;;;;;;;;5082453;28;20432;-70
2021/03/03 04:23:12;;;;;;;14.90;6.93;;;;;;;;;;5080722;28;20434;-70
2021/03/03 04:25:38;;;;;;;15.50;7.47;;;;;;;;;;5056430;28;20433;-70
2021/03/03 04:28:05;;;;;;;13.17;7.47;;;;;;;;;;5055986;28;20447;-70
2021/03/03 04:30:31;;;;;;;12.97;7.80;;;;;;;;;;5070391;28;20433;-70
2021/03/03 04:32:57;;;;;;;17.10;8.43;;;;;;;;;;5096162;28;20943;-70
2021/03/03 04:35:23;;;;;;;10.07;7.10;;;;;;;;;;5094449;28;20435;-70
2021/03/03 04:37:49;;;;;;;10.07;5.90;;;;;;;;;;5095898;28;20977;-70
2021/03/03 04:40:15;;;;;;;18.43;8.37;;;;;;;;;;5088804;28;20894;-70
2021/03/03 04:42:41;;;;;;;14.67;7.37;;;;;;;;;;5057859;28;20411;-70
2021/03/03 04:45:08;;;;;;;16.63;7.10;;;;;;;;;;5075980;28;20477;-70
2021/03/03 04:47:34;;;;;;;11.57;7.33;;;;;;;;;;5094013;28;20454;-70
2021/03/03 04:50:00;;;;;;;9.63;6.37;;;;;;;;;;5074034;28;20513;-71
2021/03/03 04:52:26;;;;;;;9.97;6.23;;;;;;;;;;5077530;28;20909;-70
2021/03/03 04:54:52;;;;;;;15.63;7.40;;;;;;;;;;5087474;28;20426;-70
2021/03/03 04:57:18;;;;;;;10.80;7.00;;;;;;;;;;5067672;28;20542;-70
2021/03/03 04:59:44;;;;;;;13.97;7.37;;;;;;;;;;5055211;28;20453;-70
2021/03/03 05:02:10;;;;;;;9.80;6.63;;;;;;;;;;5074930;28;20485;-70
2021/03/03 05:04:36;;;;;;;13.03;7.00;;;;;;;;;;5075588;28;20969;-70
2021/03/03 05:07:03;;;;;;;10.70;6.40;;;;;;;;;;5074639;28;20459;-70
2021/03/03 05:09:29;;;;;;;14.50;8.63;;;;;;;;;;5075674;28;20466;-70
2021/03/03 05:11:55;;;;;;;15.10;7.10;;;;;;;;;;5078503;28;20429;-71
2021/03/03 05:14:21;;;;;;;21.43;7.20;;;;;;;;;;5075282;28;20764;-70
2021/03/03 05:16:47;;;;;;;16.60;7.50;;;;;;;;;;5086962;28;20470;-70
2021/03/03 05:19:13;;;;;;;14.67;8.60;;;;;;;;;;5095375;28;21023;-70
2021/03/03 05:21:39;;;;;;;12.57;7.20;;;;;;;;;;5087088;28;20419;-70
2021/03/03 05:24:05;;;;;;;13.17;7.43;;;;;;;;;;5059916;28;20413;-70
2021/03/03 05:26:31;;;;;;;9.60;6.30;;;;;;;;;;5076780;28;20446;-70
2021/03/03 05:28:57;;;;;;;12.70;7.00;;;;;;;;;;5095726;28;20493;-70
2021/03/03 05:31:23;;;;;;;13.40;7.80;;;;;;;;;;5093043;28;20440;-70
2021/03/03 05:33:49;;;;;;;16.20;6.70;;;;;;;;;;5074615;28;20796;-69
2021/03/03 05:36:15;;;;;;;11.87;6.80;;;;;;;;;;5073353;28;20441;-70
2021/03/03 05:38:42;;;;;;;9.40;6.37;;;;;;;;;;5074811;28;20451;-70
2021/03/03 05:41:08;;;;;;;19.33;6.93;;;;;;;;;;5080855;28;20532;-70
2021/03/03 05:43:34;;;;;;;15.23;9.37;;;;;;;;;;5079001;28;20421;-70
2021/03/03 05:46:01;;;;;;;11.73;6.80;;;;;;;;;;5061952;28;20427;-70
2021/03/03 05:48:30;;;;;;;15.53;7.17;;;;;;;;;;5094701;28;20431;-70
2021/03/03 05:50:57;;;;;;;10.20;6.43;;;;;;;;;;5078983;28;20436;-69
2021/03/03 05:53:25;;;;;;;17.97;7.30;;;;;;;;;;5074706;28;20420;-70
2021/03/03 05:55:58;;;;;;;12.80;6.87;;;;;;;;;;5068807;28;20450;-70
2021/03/03 05:58:27;;;;;;;11.33;5.97;;;;;;;;;;5074525;28;20464;-70
2021/03/03 06:00:55;;;;;;;10.63;6.80;;;;;;;;;;5077859;28;20438;-70
2021/03/03 06:03:23;;;;;;;10.70;6.43;;;;;;;;;;5086584;28;20422;-70
2021/03/03 06:05:49;;;;;;;16.30;6.70;;;;;;;;;;5070970;28;20422;-71
2021/03/03 06:08:16;;;;;;;13.67;6.30;;;;;;;;;;5054214;28;20434;-70
2021/03/03 06:10:42;;;;;;;12.43;7.50;;;;;;;;;;5054143;28;20439;-70
2021/03/03 06:13:08;;;;;;;17.10;6.53;;;;;;;;;;5056904;28;20409;-71
2021/03/03 06:15:34;;;;;;;15.33;6.43;;;;;;;;;;5057234;28;20807;-71
2021/03/03 06:18:01;;;;;;;12.53;7.10;;;;;;;;;;5075681;28;20467;-71
2021/03/03 06:20:27;;;;;;;16.67;7.97;;;;;;;;;;5075191;28;20403;-72
2021/03/03 06:22:53;;;;;;;16.97;7.47;;;;;;;;;;5055768;28;20918;-71
2021/03/03 06:25:20;;;;;;;15.53;7.83;;;;;;;;;;5073267;28;20427;-71
2021/03/03 06:27:47;;;;;;;14.03;8.33;;;;;;;;;;5073424;28;20445;-71
2021/03/03 06:30:14;;;;;;;18.10;7.30;;;;;;;;;;5075876;28;20454;-70
2021/03/03 06:33:00;;;;;;;11.90;6.13;;;;;;;;;;5090255;28;20442;-70
2021/03/03 06:35:40;;;;;;;14.60;6.67;;;;;;;;;;5063145;28;20904;-71
2021/03/03 06:38:07;;;;;;;21.03;7.23;;;;;;;;;;5053943;28;20468;-70
2021/03/03 06:40:35;;;;;;;18.47;7.60;;;;;;;;;;5053623;28;20434;-71
2021/03/03 06:43:19;;;;;;;22.93;8.17;;;;;;;;;;5093619;28;20802;-70
2021/03/03 06:45:45;;;;;;;16.30;7.60;;;;;;;;;;5078638;28;20417;-71
2021/03/03 06:48:11;;;;;;;10.50;6.20;;;;;;;;;;5072527;28;20497;-70
2021/03/03 06:50:39;;;;;;;12.43;6.10;;;;;;;;;;5035460;28;20755;-72
2021/03/03 06:53:05;;;;;;;13.20;5.70;;;;;;;;;;5090853;28;20409;-70
2021/03/03 06:55:44;;;;;;;10.53;6.27;;;;;;;;;;5073603;28;20451;-70
2021/03/03 06:58:29;;;;;;;11.23;4.83;;;;;;;;;;5053189;28;20460;-71
2021/03/03 07:00:57;;;;;;;7.70;4.90;;;;;;;;;;5055978;28;20512;-71
2021/03/03 07:03:36;;;;;;;11.23;6.33;;;;;;;;;;5074877;28;20432;-71
2021/03/03 07:06:03;;;;;;;12.23;5.60;;;;;;;;;;5056623;28;20427;-70
2021/03/03 07:08:29;;;;;;;10.33;4.60;;;;;;;;;;5093349;28;20430;-71
2021/03/03 07:10:55;;;;;;;14.33;5.67;;;;;;;;;;5093090;28;20451;-70
2021/03/03 07:13:40;;;;;;;14.17;5.00;;;;;;;;;;5093698;28;20940;-70
2021/03/03 07:16:07;;;;;;;11.87;5.00;;;;;;;;;;5084214;28;20813;-72
2021/03/03 07:18:37;;;;;;;17.23;6.97;;;;;;;;;;5093162;28;20853;-70
2021/03/03 07:21:04;;;;;;;8.97;4.73;;;;;;;;;;5088215;28;20411;-70
2021/03/03 07:23:43;;;;;;;11.43;5.67;;;;;;;;;;5063571;28;20465;-70
2021/03/03 07:26:10;;;;;;;11.67;5.67;;;;;;;;;;5053713;28;20475;-71
2021/03/03 07:28:36;;;;;;;19.70;6.00;;;;;;;;;;5073030;28;20407;-70
2021/03/03 07:31:02;;;;;;;14.90;6.40;;;;;;;;;;5071728;28;20446;-71
2021/03/03 07:33:29;;;;;;;18.73;6.30;;;;;;;;;;5076248;28;20418;-69
2021/03/03 07:35:57;;;;;;;10.43;5.47;;;;;;;;;;5071059;28;20422;-69
2021/03/03 07:38:23;;;;;;;14.50;5.93;;;;;;;;;;5072148;28;20459;-69
2021/03/03 07:40:49;;;;;;;8.10;5.27;;;;;;;;;;5072327;28;20410;-72
2021/03/03 07:43:17;;;;;;;13.03;5.60;;;;;;;;;;5091241;28;20499;-71
2021/03/03 07:45:43;;;;;;;11.23;6.17;;;;;;;;;;5054630;28;20496;-71
2021/03/03 07:48:10;;;;;;;13.07;7.50;;;;;;;;;;5070844;28;20456;-71
2021/03/03 07:50:36;;;;;;;11.67;5.40;;;;;;;;;;5073453;28;20413;-71
2021/03/03 07:53:02;;;;;;;13.40;4.90;;;;;;;;;;5069211;28;20431;-71
2021/03/03 07:55:28;;;;;;;10.33;4.00;;;;;;;;;;5069446;28;20445;-71
2021/03/03 07:57:56;;;;;;;9.33;4.43;;;;;;;;;;5068026;28;20468;-70
2021/03/03 08:00:27;;;;;;;10.63;5.30;;;;;;;;;;5071690;28;20423;-70
2021/03/03 08:02:53;;;;;;;8.40;4.80;;;;;;;;;;5070681;28;20781;-70
2021/03/03 08:05:26;;;;;;;9.20;6.20;;;;;;;;;;5071223;28;20697;-73
2021/03/03 08:08:14;;;;;;;13.63;5.07;;;;;;;;;;5066262;28;20484;-71
2021/03/03 08:10:41;;;;;;;16.63;4.60;;;;;;;;;;5062752;28;20828;-72
2021/03/03 08:13:09;;;;;;;11.63;4.60;;;;;;;;;;5069093;28;20459;-72
2021/03/03 08:15:38;;;;;;;10.50;5.40;;;;;;;;;;5047724;28;20422;-75
2021/03/03 08:18:23;;;;;;;11.20;5.40;;;;;;;;;;5052299;28;20987;-75
2021/03/03 08:20:50;;;;;;;19.43;4.70;;;;;;;;;;5073284;28;20414;-79
2021/03/03 08:23:32;;;;;;;10.00;3.70;;;;;;;;;;5084995;28;20505;-78
2021/03/03 08:25:58;;;;;;;13.50;3.90;;;;;;;;;;5076447;28;20417;-79
2021/03/03 08:28:43;;;;;;;4.83;3.20;;;;;;;;;;5060908;28;20453;-81
2021/03/03 08:31:11;;;;;;;8.23;3.10;;;;;;;;;;5074211;28;20450;-78
2021/03/03 08:33:38;;;;;;;11.67;3.77;;;;;;;;;;5062461;28;20424;-73
2021/03/03 08:36:05;;;;;;;4.40;2.80;;;;;;;;;;5066910;28;20449;-73
2021/03/03 08:38:31;;;;;;;6.10;3.13;;;;;;;;;;5067759;28;20469;-74
2021/03/03 08:41:15;;;;;;;7.50;2.78;;;;;;;;;;5069997;28;20478;-72
2021/03/03 08:43:43;;;;;;;3.70;2.60;;;;;;;;;;5072017;28;20584;-70
2021/03/03 08:46:18;;;;;;;4.77;2.90;;;;;;;;;;5075874;28;20497;-75
2021/03/03 08:48:44;;;;;;;7.47;2.83;;;;;;;;;;5073463;28;20507;-78
2021/03/03 08:51:46;;;;;;;3.80;2.30;;;;;;;;;;5082010;28;20477;-77
2021/03/03 08:54:19;;;;;;;7.07;2.70;;;;;;;;;;4971575;28;20476;-73
2021/03/03 08:56:45;;;;;;;5.50;2.70;;;;;;;;;;5049881;28;20471;-72
2021/03/03 08:59:11;;;;;;;3.30;2.37;;;;;;;;;;5060918;28;20452;-72
2021/03/03 09:01:55;;;;;;;5.07;2.63;;;;;;;;;;5060271;28;20444;-73
2021/03/03 09:04:22;;;;;;;4.63;2.50;;;;;;;;;;5056559;28;20437;-74
2021/03/03 09:06:50;;;;;;;8.10;3.20;;;;;;;;;;5058587;28;20810;-72
2021/03/03 09:09:16;;;;;;;5.60;3.50;;;;;;;;;;5061300;28;20679;-77
2021/03/03 09:11:43;;;;;;;5.20;2.50;;;;;;;;;;5063077;28;20425;-77
2021/03/03 09:14:09;;;;;;;9.53;3.17;;;;;;;;;;5067088;28;20420;-76
2021/03/03 09:16:51;;;;;;;5.30;3.03;;;;;;;;;;5070596;28;20529;-74
2021/03/03 09:19:17;;;;;;;8.50;2.70;;;;;;;;;;5067950;28;20814;-72
2021/03/03 09:21:43;;;;;;;6.90;3.67;;;;;;;;;;5066700;28;20668;-73
2021/03/03 09:24:10;;;;;;;6.97;3.03;;;;;;;;;;5064876;28;20431;-74
2021/03/03 09:26:37;;;;;;;8.60;4.00;;;;;;;;;;5073980;28;20449;-72
2021/03/03 09:29:03;;;;;;;8.53;4.33;;;;;;;;;;5048861;28;20428;-75
2021/03/03 09:31:31;;;;;;;6.90;4.10;;;;;;;;;;5071113;28;20489;-73
2021/03/03 09:33:58;;;;;;;5.63;3.50;;;;;;;;;;5066666;28;20444;-74
2021/03/03 09:36:24;;;;;;;7.70;4.30;;;;;;;;;;5068346;28;20426;-74
2021/03/03 09:39:00;;;;;;;5.47;3.13;;;;;;;;;;5072999;28;20461;-72
2021/03/03 09:41:27;;;;;;;11.50;3.40;;;;;;;;;;5069591;28;20453;-73
2021/03/03 09:43:59;;;;;;;7.13;3.50;;;;;;;;;;5072049;28;20455;-74
2021/03/03 09:46:25;;;;;;;5.27;3.40;;;;;;;;;;5067621;28;20424;-74
2021/03/03 09:48:51;;;;;;;6.00;3.58;;;;;;;;;;5074862;28;20417;-71
2021/03/03 09:51:17;;;;;;;4.77;3.10;;;;;;;;;;5071478;28;20244;-71
2021/03/03 09:53:56;;;;;;;6.50;4.20;;;;;;;;;;5052730;28;20434;-71
2021/03/03 09:56:26;;;;;;;8.03;4.50;;;;;;;;;;5062404;28;20428;-71
2021/03/03 09:58:52;;;;;;;5.50;4.70;;;;;;;;;;5070609;28;20517;-73
2021/03/03 10:01:18;;;;;;;9.20;4.43;;;;;;;;;;5063655;28;20415;-72
2021/03/03 10:03:44;;;;;;;8.70;4.50;;;;;;;;;;5061015;28;20444;-72
2021/03/03 10:06:10;;;;;;;8.20;4.30;;;;;;;;;;5045248;28;20200;-72
2021/03/03 10:08:36;;;;;;;4.77;3.20;;;;;;;;;;5066094;28;20920;-73
2021/03/03 10:11:02;;;;;;;5.93;3.60;;;;;;;;;;5064287;28;20746;-72
2021/03/03 10:13:28;;;;;;;5.30;3.47;;;;;;;;;;5046056;28;20432;-71
2021/03/03 10:15:55;;;;;;;8.63;3.90;;;;;;;;;;5064846;28;20447;-69
2021/03/03 10:18:21;;;;;;;7.20;3.78;;;;;;;;;;5062768;28;20434;-71
2021/03/03 10:20:54;;;;;;;6.83;4.50;;;;;;;;;;5066763;28;20185;-71
2021/03/03 10:23:25;;;;;;;10.47;3.70;;;;;;;;;;5066762;28;20433;-74
2021/03/03 10:25:52;;;;;;;5.90;3.80;;;;;;;;;;5064909;28;20428;-75
2021/03/03 10:28:18;;;;;;;9.10;4.03;;;;;;;;;;5049561;28;21218;-74
2021/03/03 10:30:45;;;;;;;8.00;3.30;;;;;;;;;;5064635;28;20410;-74
2021/03/03 10:33:12;;;;;;;7.23;3.67;;;;;;;;;;5060306;28;20520;-74
2021/03/03 10:35:48;;;;;;;8.70;3.77;;;;;;;;;;5063591;28;20433;-71
2021/03/03 10:38:16;;;;;;;14.63;5.23;;;;;;;;;;5061440;28;20576;-72
2021/03/03 10:40:42;;;;;;;5.27;3.37;;;;;;;;;;5062210;28;20428;-75
2021/03/03 10:43:09;;;;;;;10.63;4.30;;;;;;;;;;5061801;28;20416;-75
2021/03/03 10:45:35;;;;;;;9.47;4.40;;;;;;;;;;5062020;28;20762;-73
2021/03/03 10:48:01;;;;;;;9.57;3.83;;;;;;;;;;5067673;28;20479;-73
2021/03/03 10:50:29;;;;;;;12.53;4.30;;;;;;;;;;5062547;28;20828;-74
2021/03/03 10:53:00;;;;;;;9.43;4.93;;;;;;;;;;5065523;28;20915;-73
2021/03/03 10:55:26;;;;;;;8.93;5.10;;;;;;;;;;5059106;28;20840;-71
2021/03/03 10:58:01;;;;;;;6.10;3.50;;;;;;;;;;5063340;28;20600;-73
2021/03/03 11:00:28;;;;;;;10.00;4.20;;;;;;;;;;5064238;28;20557;-73
2021/03/03 11:03:06;;;;;;;8.63;4.40;;;;;;;;;;5057232;28;20414;-70
2021/03/03 11:05:32;;;;;;;7.10;4.63;;;;;;;;;;5065541;28;20642;-71
2021/03/03 11:07:58;;;;;;;9.33;4.40;;;;;;;;;;5062052;28;20443;-71
2021/03/03 11:10:24;;;;;;;9.97;4.90;;;;;;;;;;5062503;28;20485;-71
2021/03/03 11:12:50;;;;;;;7.83;5.03;;;;;;;;;;5063121;28;20974;-71
2021/03/03 11:15:17;;;;;;;11.17;5.83;;;;;;;;;;5057373;28;20427;-71
2021/03/03 11:17:44;;;;;;;5.67;4.70;;;;;;;;;;5063969;28;20519;-70
2021/03/03 11:20:10;;;;;;;7.47;4.40;;;;;;;;;;5059790;28;21279;-71
2021/03/03 11:22:36;;;;;;;7.67;5.03;;;;;;;;;;5058734;28;21013;-71
2021/03/03 11:25:03;;;;;;;9.03;4.50;;;;;;;;;;5062727;28;20536;-71
2021/03/03 11:27:31;;;;;;;6.30;4.50;;;;;;;;;;5068641;28;21051;-70
2021/03/03 11:29:57;;;;;;;9.50;5.60;;;;;;;;;;5066991;28;20430;-71
2021/03/03 11:32:23;;;;;;;6.43;4.17;;;;;;;;;;5064041;28;20453;-71
2021/03/03 11:34:49;;;;;;;6.33;3.93;;;;;;;;;;5063873;28;20503;-71
2021/03/03 11:37:16;;;;;;;7.00;4.00;;;;;;;;;;5062279;28;20440;-71
2021/03/03 11:39:42;;;;;;;6.50;4.27;;;;;;;;;;5046958;28;20448;-72
2021/03/03 11:42:08;;;;;;;5.67;4.30;;;;;;;;;;5077999;28;20439;-71
2021/03/03 11:44:34;;;;;;;5.67;3.90;;;;;;;;;;5069721;28;20515;-71
2021/03/03 11:47:00;;;;;;;7.67;3.80;;;;;;;;;;5068254;28;20976;-71
2021/03/03 11:49:26;;;;;;;5.50;4.00;;;;;;;;;;5068753;28;20429;-71
2021/03/03 11:51:52;;;;;;;9.60;4.73;;;;;;;;;;5066975;28;20475;-71
2021/03/03 11:54:18;;;;;;;8.23;4.27;;;;;;;;;;5065417;28;20457;-72
2021/03/03 11:56:46;;;;;;;8.00;5.40;;;;;;;;;;5065862;28;20443;-71
2021/03/03 11:59:12;;;;;;;6.43;3.63;;;;;;;;;;5063552;28;20796;-71
2021/03/03 12:01:38;;;;;;;9.17;4.90;;;;;;;;;;5060729;28;20437;-72
2021/03/03 12:04:04;;;;;;;7.00;4.17;;;;;;;;;;5040338;28;20418;-71
2021/03/03 12:06:30;;;;;;;5.97;4.43;;;;;;;;;;5061810;28;20450;-71
2021/03/03 12:08:56;;;;;;;8.27;4.20;;;;;;;;;;5069902;28;20421;-71
2021/03/03 12:11:22;;;;;;;7.00;4.47;;;;;;;;;;5075410;28;20430;-71
2021/03/03 12:13:48;;;;;;;8.80;5.60;;;;;;;;;;5073924;28;20516;-71
2021/03/03 12:16:14;;;;;;;6.53;4.07;;;;;;;;;;5064659;28;20426;-71
2021/03/03 12:18:40;;;;;;;7.87;4.30;;;;;;;;;;5055657;28;20923;-71
2021/03/03 12:21:06;;;;;;;6.73;4.30;;;;;;;;;;5072504;28;20432;-70
2021/03/03 12:23:32;;;;;;;7.23;4.93;;;;;;;;;;5080543;28;21034;-71
2021/03/03 12:25:58;;;;;;;6.77;3.93;;;;;;;;;;5072641;28;20498;-71
2021/03/03 12:28:25;;;;;;;10.30;5.30;;;;;;;;;;5073813;28;20501;-71
2021/03/03 12:30:52;;;;;;;7.70;5.60;;;;;;;;;;5071396;28;20511;-71
2021/03/03 12:33:18;;;;;;;9.37;4.83;;;;;;;;;;5079797;28;20418;-72
2021/03/03 12:35:44;;;;;;;5.70;4.10;;;;;;;;;;5074191;28;20418;-70
2021/03/03 12:38:10;;;;;;;8.07;5.20;;;;;;;;;;5066114;28;20472;-71
2021/03/03 12:40:36;;;;;;;7.87;4.40;;;;;;;;;;5071459;28;20512;-70
2021/03/03 12:43:02;;;;;;;7.97;5.40;;;;;;;;;;5089221;28;20820;-71
2021/03/03 12:45:28;;;;;;;8.47;4.90;;;;;;;;;;5075480;28;20423;-71
2021/03/03 12:47:55;;;;;;;6.40;4.73;;;;;;;;;;5072144;28;20451;-71
2021/03/03 12:50:21;;;;;;;9.10;4.50;;;;;;;;;;5071530;28;20435;-70
2021/03/03 12:52:47;;;;;;;6.03;4.20;;;;;;;;;;5075011;28;20423;-71
2021/03/03 12:55:14;;;;;;;11.60;5.30;;;;;;;;;;5067712;28;20443;-71
2021/03/03 12:57:40;;;;;;;9.63;6.20;;;;;;;;;;5064582;28;20852;-71
2021/03/03 13:00:06;;;;;;;8.20;4.40;;;;;;;;;;5065264;28;20814;-70
2021/03/03 13:02:33;;;;;;;6.97;4.93;;;;;;;;;;5059441;28;20431;-72
2021/03/03 13:05:00;;;;;;;11.13;5.17;;;;;;;;;;5068865;28;20447;-74
2021/03/03 13:07:26;;;;;;;7.70;5.30;;;;;;;;;;5064718;28;20444;-72
2021/03/03 13:09:52;;;;;;;6.63;4.63;;;;;;;;;;5067939;28;20856;-71
2021/03/03 13:12:18;;;;;;;10.50;4.63;;;;;;;;;;5064272;28;20826;-75
2021/03/03 13:14:44;;;;;;;8.87;4.60;;;;;;;;;;5067255;28;20744;-75
2021/03/03 13:17:10;;;;;;;8.13;4.90;;;;;;;;;;5068699;28;20471;-70
2021/03/03 13:19:36;;;;;;;7.93;5.20;;;;;;;;;;5071687;28;20474;-71
2021/03/03 13:22:02;;;;;;;11.63;5.68;;;;;;;;;;5067644;28;20435;-71
2021/03/03 13:24:28;;;;;;;12.57;5.13;;;;;;;;;;5071497;28;21942;-71
2021/03/03 13:26:54;;;;;;;12.77;5.70;;;;;;;;;;5075160;28;20196;-71
2021/03/03 13:29:20;;;;;;;10.50;4.40;;;;;;;;;;5068906;28;20459;-71
2021/03/03 13:31:46;;;;;;;8.20;4.53;;;;;;;;;;5064402;28;20416;-71
2021/03/03 13:34:15;;;;;;;7.17;4.60;;;;;;;;;;5063493;28;20810;-70
2021/03/03 13:36:41;;;;;;;8.60;4.10;;;;;;;;;;5059550;28;21000;-71
2021/03/03 13:39:08;;;;;;;7.10;4.10;;;;;;;;;;5054443;28;21002;-70
2021/03/03 13:41:34;;;;;;;7.90;4.00;;;;;;;;;;5062129;28;20432;-72
2021/03/03 13:44:00;;;;;;;9.37;3.43;;;;;;;;;;5070536;28;20427;-74
2021/03/03 13:46:26;;;;;;;5.97;3.90;;;;;;;;;;5064798;28;20468;-72
2021/03/03 13:48:52;;;;;;;7.90;4.30;;;;;;;;;;5067540;28;20185;-72
2021/03/03 13:51:18;;;;;;;7.90;3.90;;;;;;;;;;5067901;28;20433;-70
2021/03/03 13:53:44;;;;;;;8.73;5.33;;;;;;;;;;5064248;28;20906;-74
2021/03/03 13:56:10;;;;;;;9.63;4.20;;;;;;;;;;5066548;28;20429;-72
2021/03/03 13:58:39;;;;;;;9.13;4.23;;;;;;;;;;5061639;28;20444;-73
2021/03/03 14:01:05;;;;;;;7.03;4.17;;;;;;;;;;5064973;28;20473;-72
2021/03/03 14:03:31;;;;;;;6.63;4.22;;;;;;;;;;5062044;28;20431;-72
2021/03/03 14:05:57;;;;;;;6.57;4.47;;;;;;;;;;5064875;28;20194;-74
2021/03/03 14:08:23;;;;;;;10.33;4.63;;;;;;;;;;5059990;28;21037;-72
2021/03/03 14:10:49;;;;;;;9.30;4.57;;;;;;;;;;5041077;28;20509;-73
2021/03/03 14:13:15;;;;;;;13.10;5.77;;;;;;;;;;5064021;28;20512;-73
2021/03/03 14:15:41;;;;;;;8.33;4.50;;;;;;;;;;5064719;28;20900;-73
2021/03/03 14:18:07;;;;;;;8.00;3.70;;;;;;;;;;5066995;28;20460;-73
2021/03/03 14:20:33;;;;;;;17.60;4.90;;;;;;;;;;5063630;28;20916;-73
2021/03/03 14:22:59;;;;;;;6.23;4.13;;;;;;;;;;5066742;28;20412;-73
2021/03/03 14:25:25;;;;;;;10.03;5.60;;;;;;;;;;5066355;28;20427;-73
2021/03/03 14:27:51;;;;;;;8.40;5.27;;;;;;;;;;5066954;28;20825;-73
2021/03/03 14:30:18;;;;;;;6.73;4.47;;;;;;;;;;5067379;28;20499;-73
2021/03/03 14:32:44;;;;;;;7.53;4.07;;;;;;;;;;5063207;28;20427;-75
2021/03/03 14:35:10;;;;;;;9.23;4.33;;;;;;;;;;5064711;28;20417;-72
2021/03/03 14:37:36;;;;;;;15.10;5.00;;;;;;;;;;5063581;28;20897;-73